createdAt,value
2022-12-09T00:01:13.239Z,48.95
2022-12-09T00:03:41.374Z,42.05
2022-12-09T00:06:11.401Z,44.63
2022-12-09T00:08:38.524Z,42.60
2022-12-09T00:11:07.857Z,38.30
2022-12-09T00:13:36.614Z,44.28
2022-12-09T00:16:09.387Z,43.38
2022-12-09T00:18:36.727Z,47.50
2022-12-09T00:21:19.504Z,46.00
2022-12-09T00:23:47.368Z,41.67
2022-12-09T00:26:15.556Z,40.83
2022-12-09T00:28:43.608Z,37.28
2022-12-09T00:31:14.338Z,38.42
2022-12-09T00:33:45.061Z,37.78
2022-12-09T00:36:15.190Z,39.88
2022-12-09T00:38:43.132Z,44.10
2022-12-09T00:41:11.794Z,36.85
2022-12-09T00:43:42.038Z,41.85
2022-12-09T00:46:10.644Z,39.88
2022-12-09T00:48:38.675Z,37.67
2022-12-09T00:51:12.692Z,47.63
2022-12-09T00:53:40.629Z,40.53
2022-12-09T00:56:08.954Z,37.10
2022-12-09T00:58:36.956Z,38.15
2022-12-09T01:01:05.912Z,36.33
2022-12-09T01:03:33.418Z,38.92
2022-12-09T01:06:01.220Z,41.33
2022-12-09T01:08:28.656Z,42.40
2022-12-09T01:10:55.909Z,38.03
2022-12-09T01:13:23.774Z,39.83
2022-12-09T01:15:50.943Z,38.55
2022-12-09T01:18:18.000Z,43.88
2022-12-09T01:20:45.166Z,42.88
2022-12-09T01:23:12.649Z,41.25
2022-12-09T01:25:39.995Z,40.15
2022-12-09T01:28:07.299Z,41.08
2022-12-09T01:30:34.488Z,36.03
2022-12-09T01:33:01.899Z,39.95
2022-12-09T01:35:29.379Z,40.60
2022-12-09T01:37:56.828Z,37.33
2022-12-09T01:40:24.289Z,42.13
2022-12-09T01:42:51.574Z,42.00
2022-12-09T01:45:22.319Z,41.25
2022-12-09T01:47:56.607Z,40.30
2022-12-09T01:50:26.593Z,39.05
2022-12-09T01:52:56.340Z,46.40
2022-12-09T01:55:25.894Z,37.47
2022-12-09T01:57:53.592Z,39.92
2022-12-09T02:00:21.568Z,41.33
2022-12-09T02:02:52.428Z,36.42
2022-12-09T02:05:21.795Z,39.33
2022-12-09T02:07:54.548Z,41.15
2022-12-09T02:10:22.553Z,41.25
2022-12-09T02:13:26.467Z,38.58
2022-12-09T02:15:58.933Z,29.17
2022-12-09T02:18:42.804Z,36.20
2022-12-09T02:21:41.047Z,37.63
2022-12-09T02:27:17.729Z,41.05
2022-12-09T02:29:57.773Z,40.05
2022-12-09T02:32:56.128Z,38.90
2022-12-09T02:35:39.630Z,35.10
2022-12-09T02:38:11.983Z,35.03
2022-12-09T02:41:15.759Z,36.97
2022-12-09T02:43:50.932Z,38.72
2022-12-09T02:46:26.659Z,34.45
2022-12-09T02:48:59.241Z,37.28
2022-12-09T02:51:30.935Z,33.97
2022-12-09T02:54:04.128Z,37.90
2022-12-09T02:56:35.823Z,34.70
2022-12-09T02:59:03.707Z,40.10
2022-12-09T03:01:50.030Z,37.70
2022-12-09T03:04:25.590Z,32.88
2022-12-09T03:06:57.981Z,35.40
2022-12-09T03:11:57.785Z,34.78
2022-12-09T03:14:31.805Z,38.28
2022-12-09T03:17:09.001Z,32.35
2022-12-09T03:19:41.005Z,39.67
2022-12-09T03:22:13.733Z,34.60
2022-12-09T03:24:54.420Z,39.00
2022-12-09T03:27:34.399Z,36.53
2022-12-09T03:30:04.652Z,32.35
2022-12-09T03:32:33.959Z,37.88
2022-12-09T03:35:10.571Z,33.30
2022-12-09T03:37:40.927Z,37.15
2022-12-09T03:40:14.286Z,36.70
2022-12-09T03:42:53.495Z,35.75
2022-12-09T03:45:23.668Z,38.20
2022-12-09T03:47:52.110Z,37.25
2022-12-09T03:50:21.893Z,37.45
2022-12-09T03:52:54.250Z,36.67
2022-12-09T03:55:28.248Z,35.20
2022-12-09T03:57:58.142Z,37.33
2022-12-09T04:00:27.644Z,42.17
2022-12-09T04:02:56.250Z,40.63
2022-12-09T04:05:23.410Z,39.25
2022-12-09T04:07:54.207Z,40.10
2022-12-09T04:10:21.218Z,35.55
2022-12-09T04:12:48.289Z,43.25
2022-12-09T04:15:15.330Z,35.05
2022-12-09T04:17:45.529Z,44.63
2022-12-09T04:20:13.573Z,36.63
2022-12-09T04:22:42.261Z,40.60
2022-12-09T04:25:10.292Z,36.10
2022-12-09T04:27:38.289Z,35.53
2022-12-09T04:30:07.211Z,41.92
2022-12-09T04:32:37.286Z,41.03
2022-12-09T04:35:05.008Z,44.75
2022-12-09T04:37:32.714Z,43.47
2022-12-09T04:40:00.415Z,39.30
2022-12-09T04:42:29.104Z,39.03
2022-12-09T04:44:56.546Z,36.08
2022-12-09T04:47:24.392Z,38.83
2022-12-09T04:49:51.798Z,42.45
2022-12-09T04:52:20.538Z,35.80
2022-12-09T04:54:50.359Z,36.42
2022-12-09T04:57:18.576Z,34.10
2022-12-09T04:59:45.965Z,36.22
2022-12-09T05:02:13.530Z,37.83
2022-12-09T05:04:42.937Z,37.88
2022-12-09T05:07:11.844Z,33.97
2022-12-09T05:09:39.785Z,32.55
2022-12-09T05:12:07.427Z,32.20
2022-12-09T05:14:34.491Z,36.53
2022-12-09T05:17:03.814Z,36.97
2022-12-09T05:19:31.584Z,31.00
2022-12-09T05:21:59.431Z,37.30
2022-12-09T05:24:26.646Z,34.13
2022-12-09T05:26:53.732Z,36.20
2022-12-09T05:29:22.989Z,39.00
2022-12-09T05:31:51.942Z,39.67
2022-12-09T05:34:21.248Z,35.28
2022-12-09T05:36:48.658Z,41.03
2022-12-09T05:39:16.101Z,38.17
2022-12-09T05:41:43.597Z,42.55
2022-12-09T05:44:15.307Z,35.85
2022-12-09T05:46:42.883Z,38.95
2022-12-09T05:49:11.029Z,39.17
2022-12-09T05:51:38.529Z,35.17
2022-12-09T05:54:06.614Z,34.22
2022-12-09T05:56:34.553Z,38.47
2022-12-09T05:59:02.525Z,40.97
2022-12-09T06:01:29.987Z,38.22
2022-12-09T06:03:57.886Z,35.08
2022-12-09T06:06:28.443Z,40.75
2022-12-09T06:08:58.748Z,40.05
2022-12-09T06:11:27.044Z,32.38
2022-12-09T06:13:56.150Z,34.47
2022-12-09T06:16:23.730Z,34.78
2022-12-09T06:18:52.561Z,35.97
2022-12-09T06:21:21.205Z,40.60
2022-12-09T06:23:49.748Z,35.72
2022-12-09T06:26:23.846Z,41.67
2022-12-09T06:28:52.298Z,42.50
2022-12-09T06:31:19.853Z,42.95
2022-12-09T06:33:57.212Z,43.53
2022-12-09T06:36:26.378Z,42.97
2022-12-09T06:38:55.556Z,43.55
2022-12-09T06:41:23.231Z,45.95
2022-12-09T06:43:50.754Z,51.35
2022-12-09T06:46:26.095Z,42.58
2022-12-09T06:48:55.040Z,63.83
2022-12-09T06:51:24.665Z,53.97
2022-12-09T06:53:53.406Z,57.08
2022-12-09T06:56:21.110Z,49.83
2022-12-09T06:58:49.135Z,55.72
2022-12-09T07:01:20.945Z,58.90
2022-12-09T07:03:53.218Z,59.80
2022-12-09T07:06:34.545Z,69.25
2022-12-09T07:09:05.610Z,67.97
2022-12-09T07:11:33.684Z,58.53
2022-12-09T07:14:01.407Z,51.42
2022-12-09T07:16:30.231Z,56.80
2022-12-09T07:18:58.326Z,45.50
2022-12-09T07:21:26.281Z,50.75
2022-12-09T07:23:53.432Z,57.47
2022-12-09T07:26:23.571Z,61.15
2022-12-09T07:28:51.291Z,66.45
2022-12-09T07:31:43.749Z,66.10
2022-12-09T07:34:11.797Z,65.90
2022-12-09T07:36:40.595Z,70.53
2022-12-09T07:39:13.387Z,54.65
2022-12-09T07:41:40.806Z,58.95
2022-12-09T07:44:08.672Z,53.85
2022-12-09T07:46:36.650Z,58.50
2022-12-09T07:49:06.360Z,61.78
2022-12-09T07:51:34.185Z,70.13
2022-12-09T07:54:01.724Z,62.33
2022-12-09T07:56:29.545Z,52.00
2022-12-09T07:58:57.735Z,55.35
2022-12-09T08:01:30.214Z,69.65
2022-12-09T08:03:58.219Z,60.75
2022-12-09T08:06:30.213Z,60.47
2022-12-09T08:09:02.270Z,67.70
2022-12-09T08:11:33.027Z,56.90
2022-12-09T08:14:08.899Z,64.47
2022-12-09T08:16:38.415Z,65.68
2022-12-09T08:19:06.199Z,73.78
2022-12-09T08:21:34.445Z,66.38
2022-12-09T08:24:06.095Z,68.80
2022-12-09T08:26:35.238Z,67.05
2022-12-09T08:29:02.753Z,74.68
2022-12-09T08:31:31.488Z,67.40
2022-12-09T08:34:04.617Z,61.75
2022-12-09T08:36:33.143Z,59.45
2022-12-09T08:39:02.079Z,63.65
2022-12-09T08:41:39.076Z,59.13
2022-12-09T08:44:19.421Z,59.60
2022-12-09T08:46:50.056Z,64.63
2022-12-09T08:49:22.347Z,64.40
2022-12-09T08:51:52.758Z,60.55
2022-12-09T08:54:20.181Z,60.22
2022-12-09T08:56:49.995Z,61.45
2022-12-09T08:59:18.511Z,57.45
2022-12-09T09:02:04.890Z,47.58
2022-12-09T09:04:33.929Z,53.10
2022-12-09T09:07:01.602Z,52.67
2022-12-09T09:09:29.304Z,47.53
2022-12-09T09:11:57.279Z,51.65
2022-12-09T09:14:25.695Z,56.92
2022-12-09T09:16:52.787Z,60.75
2022-12-09T09:19:25.742Z,57.85
2022-12-09T09:21:54.085Z,57.33
2022-12-09T09:24:26.849Z,56.15
2022-12-09T09:26:54.201Z,49.92
2022-12-09T09:29:23.791Z,54.60
2022-12-09T09:31:55.219Z,47.97
2022-12-09T09:34:25.927Z,48.72
2022-12-09T09:36:54.111Z,53.92
2022-12-09T09:39:22.290Z,50.03
2022-12-09T09:41:53.487Z,53.70
2022-12-09T09:44:41.161Z,54.63
2022-12-09T09:47:41.662Z,54.30
2022-12-09T09:50:38.874Z,58.22
2022-12-09T09:53:24.067Z,55.58
2022-12-09T09:56:00.731Z,55.42
2022-12-09T09:58:59.563Z,52.92
2022-12-09T10:01:32.533Z,51.63
2022-12-09T10:04:28.746Z,53.83
2022-12-09T10:07:11.739Z,57.47
2022-12-09T10:09:53.194Z,63.10
2022-12-09T10:12:51.527Z,65.30
2022-12-09T10:15:29.755Z,59.40
2022-12-09T10:18:21.340Z,61.63
2022-12-09T10:20:49.649Z,63.42
2022-12-09T10:23:18.175Z,54.80
2022-12-09T10:25:53.840Z,62.00
2022-12-09T10:28:23.139Z,60.45
2022-12-09T10:30:52.535Z,54.88
2022-12-09T10:33:28.388Z,64.05
2022-12-09T10:35:56.935Z,52.22
2022-12-09T10:38:26.930Z,52.80
2022-12-09T10:40:59.792Z,59.58
2022-12-09T10:43:38.668Z,51.13
2022-12-09T10:46:24.910Z,56.17
2022-12-09T10:48:59.056Z,55.00
2022-12-09T10:51:35.502Z,51.45
2022-12-09T10:54:33.030Z,57.10
2022-12-09T10:57:28.299Z,53.05
2022-12-09T11:00:20.192Z,54.58
2022-12-09T11:02:55.628Z,55.30
2022-12-09T11:05:35.813Z,57.95
2022-12-09T11:08:04.237Z,60.72
2022-12-09T11:10:33.211Z,55.20
2022-12-09T11:13:06.385Z,52.20
2022-12-09T11:15:39.754Z,65.85
2022-12-09T11:18:31.204Z,65.70
2022-12-09T11:21:08.042Z,67.38
2022-12-09T11:23:37.641Z,59.42
2022-12-09T11:26:21.648Z,56.72
2022-12-09T11:29:01.674Z,63.65
2022-12-09T11:31:33.803Z,53.42
2022-12-09T11:34:05.298Z,51.75
2022-12-09T11:36:42.210Z,46.25
2022-12-09T11:39:21.289Z,51.95
2022-12-09T11:42:17.414Z,41.88
2022-12-09T11:44:48.351Z,42.78
2022-12-09T11:47:27.512Z,47.78
2022-12-09T11:50:08.456Z,48.38
2022-12-09T11:52:36.176Z,42.80
2022-12-09T11:55:03.425Z,51.45
2022-12-09T11:57:57.691Z,45.03
2022-12-09T12:00:47.939Z,46.35
2022-12-09T12:03:23.764Z,46.90
2022-12-09T12:05:55.061Z,55.63
2022-12-09T12:08:27.509Z,67.38
2022-12-09T12:11:10.469Z,56.67
2022-12-09T12:13:54.347Z,61.75
2022-12-09T12:16:45.732Z,56.65
2022-12-09T12:19:35.474Z,71.53
2022-12-09T12:22:19.115Z,67.25
2022-12-09T12:25:27.486Z,58.25
2022-12-09T12:28:31.021Z,66.80
2022-12-09T12:31:11.729Z,56.47
2022-12-09T12:34:07.936Z,63.22
2022-12-09T12:36:46.508Z,64.43
2022-12-09T12:39:32.810Z,59.72
2022-12-09T12:42:34.860Z,69.75
2022-12-09T12:45:22.447Z,62.45
2022-12-09T12:47:56.136Z,63.08
2022-12-09T12:50:50.963Z,60.97
2022-12-09T12:53:39.384Z,60.60
2022-12-09T13:01:52.739Z,62.03
2022-12-09T13:05:05.033Z,67.40
2022-12-09T13:07:41.711Z,54.67
2022-12-09T13:10:47.109Z,63.50
2022-12-09T13:14:08.318Z,54.92
2022-12-09T14:03:34.062Z,63.63
2022-12-09T14:08:51.948Z,59.22
2022-12-09T14:11:39.228Z,59.92
2022-12-09T14:14:24.798Z,67.85
2022-12-09T14:16:54.960Z,80.00
2022-12-09T14:19:49.191Z,72.07
2022-12-09T14:22:22.238Z,66.03
2022-12-09T14:24:59.410Z,71.25
2022-12-09T14:27:33.094Z,75.03
2022-12-09T14:30:18.959Z,65.90
2022-12-09T14:32:49.350Z,62.95
2022-12-09T14:35:21.119Z,68.38
2022-12-09T14:37:59.891Z,80.80
2022-12-09T14:41:05.424Z,73.05
2022-12-09T14:44:07.999Z,69.72
2022-12-09T14:46:39.491Z,69.97
2022-12-09T14:49:25.411Z,71.17
2022-12-09T14:52:04.646Z,66.45
2022-12-09T14:54:44.692Z,74.63
2022-12-09T14:57:32.474Z,73.60
2022-12-09T14:59:59.672Z,72.40
2022-12-09T15:02:30.127Z,64.35
2022-12-09T15:05:30.749Z,59.60
2022-12-09T15:07:57.976Z,70.32
2022-12-09T15:10:38.249Z,59.42
2022-12-09T15:13:06.301Z,74.70
2022-12-09T15:15:36.588Z,66.43
2022-12-09T15:18:24.778Z,67.05
2022-12-09T15:21:04.808Z,69.85
2022-12-09T15:23:36.369Z,69.13
2022-12-09T15:26:38.294Z,51.47
2022-12-09T15:29:06.957Z,67.40
2022-12-09T15:31:35.330Z,68.35
2022-12-09T15:34:14.539Z,69.88
2022-12-09T15:36:52.202Z,64.05
2022-12-09T15:39:25.608Z,65.43
2022-12-09T15:42:09.671Z,65.82
2022-12-09T15:44:40.750Z,72.20
2022-12-09T15:47:16.334Z,73.78
2022-12-09T15:49:54.698Z,69.95
2022-12-09T15:52:27.694Z,69.05
2022-12-09T15:54:56.443Z,71.15
2022-12-09T15:57:24.344Z,65.68
2022-12-09T15:59:56.162Z,57.47
2022-12-09T16:02:28.261Z,58.05
2022-12-09T16:05:00.778Z,66.63
2022-12-09T16:07:32.912Z,65.97
2022-12-09T16:10:08.777Z,61.80
2022-12-09T16:12:36.718Z,59.13
2022-12-09T16:15:06.657Z,67.40
2022-12-09T16:17:55.100Z,62.05
2022-12-09T16:20:41.264Z,66.72
2022-12-09T16:23:23.805Z,72.93
2022-12-09T16:25:51.224Z,70.82
2022-12-09T16:28:23.853Z,66.47
2022-12-09T16:30:54.663Z,66.50
2022-12-09T16:33:24.535Z,63.40
2022-12-09T16:35:59.808Z,67.03
2022-12-09T16:38:27.093Z,66.00
2022-12-09T16:40:54.176Z,69.18
2022-12-09T16:43:26.445Z,68.95
2022-12-09T16:45:55.544Z,64.45
2022-12-09T16:48:24.738Z,63.78
2022-12-09T16:51:11.711Z,53.78
2022-12-09T16:53:45.142Z,50.97
2022-12-09T16:56:25.056Z,51.97
2022-12-09T16:58:54.181Z,50.05
2022-12-09T17:01:25.483Z,46.20
2022-12-09T17:04:18.181Z,44.90
2022-12-09T17:06:45.812Z,43.83
2022-12-09T17:09:13.961Z,43.88
2022-12-09T17:11:47.080Z,41.88
2022-12-09T17:14:16.475Z,37.10
2022-12-09T17:16:43.706Z,34.70
2022-12-09T17:19:12.967Z,36.85
2022-12-09T17:21:40.149Z,41.13
2022-12-09T17:24:08.296Z,44.03
2022-12-09T17:26:35.796Z,40.25
2022-12-09T17:29:03.415Z,41.40
2022-12-09T17:31:30.691Z,38.50
2022-12-09T17:33:58.521Z,39.42
2022-12-09T17:36:26.082Z,39.53
2022-12-09T17:38:53.373Z,36.95
2022-12-09T17:41:23.696Z,38.92
2022-12-09T17:43:50.999Z,44.88
2022-12-09T17:46:18.536Z,34.85
2022-12-09T17:48:45.922Z,40.78
2022-12-09T17:51:18.090Z,43.50
2022-12-09T17:53:46.500Z,35.58
2022-12-09T17:56:19.881Z,46.33
2022-12-09T17:58:48.240Z,44.45
2022-12-09T18:01:21.833Z,49.42
2022-12-09T18:03:58.538Z,47.25
2022-12-09T18:06:31.194Z,41.42
2022-12-09T18:08:58.317Z,38.42
2022-12-09T18:11:26.808Z,39.42
2022-12-09T18:13:54.113Z,35.35
2022-12-09T18:16:21.585Z,43.45
2022-12-09T18:18:49.840Z,43.55
2022-12-09T18:21:19.960Z,41.60
2022-12-09T18:23:48.622Z,40.50
2022-12-09T18:26:18.435Z,40.78
2022-12-09T18:28:45.968Z,45.17
2022-12-09T18:31:15.950Z,40.70
2022-12-09T18:33:43.237Z,40.17
2022-12-09T18:36:14.043Z,41.08
2022-12-09T18:38:41.712Z,40.25
2022-12-09T18:41:20.969Z,40.03
2022-12-09T18:43:50.263Z,36.70
2022-12-09T18:46:24.960Z,37.55
2022-12-09T18:49:07.171Z,38.50
2022-12-09T18:51:34.903Z,45.50
2022-12-09T18:54:03.977Z,42.58
2022-12-09T18:56:34.037Z,38.75
2022-12-09T18:59:09.462Z,43.90
2022-12-09T19:01:40.806Z,40.40
2022-12-09T19:04:25.171Z,42.42
2022-12-09T19:06:55.238Z,40.60
2022-12-09T19:09:28.661Z,39.42
2022-12-09T19:11:56.941Z,40.25
2022-12-09T19:14:24.626Z,41.88
2022-12-09T19:16:52.799Z,43.05
2022-12-09T19:19:25.307Z,40.65
2022-12-09T19:21:53.912Z,42.25
2022-12-09T19:24:24.004Z,41.97
2022-12-09T19:26:53.626Z,42.97
2022-12-09T19:29:25.796Z,47.88
2022-12-09T19:34:26.995Z,49.22
2022-12-09T19:36:56.382Z,45.83
2022-12-09T19:39:30.038Z,51.67
2022-12-09T19:41:59.273Z,49.05
2022-12-09T19:47:14.665Z,49.50
2022-12-09T19:49:44.377Z,44.38
2022-12-09T19:52:13.234Z,46.80
2022-12-09T19:54:40.548Z,43.47
2022-12-09T19:57:08.442Z,43.30
2022-12-09T19:59:36.051Z,47.63
2022-12-09T20:02:03.373Z,43.45
2022-12-09T20:07:19.292Z,44.85
2022-12-09T20:09:46.456Z,45.17
2022-12-09T20:12:14.131Z,47.65
2022-12-09T20:14:42.115Z,47.30
2022-12-09T20:17:09.132Z,49.60
2022-12-09T20:19:36.886Z,48.70
2022-12-09T20:22:04.555Z,43.47
2022-12-09T20:24:31.564Z,45.85
2022-12-09T20:26:59.165Z,54.13
2022-12-09T20:29:26.313Z,48.53
2022-12-09T20:31:54.156Z,47.90
2022-12-09T20:34:21.345Z,51.20
2022-12-09T20:36:48.673Z,43.90
2022-12-09T20:39:21.068Z,49.42
2022-12-09T20:41:49.904Z,44.20
2022-12-09T20:44:19.974Z,52.25
2022-12-09T20:46:52.281Z,51.97
2022-12-09T20:49:25.760Z,54.25
2022-12-09T20:51:53.858Z,48.47
2022-12-09T20:54:22.921Z,51.05
2022-12-09T20:56:50.441Z,56.05
2022-12-09T20:59:17.560Z,50.50
2022-12-09T21:01:47.264Z,49.25
2022-12-09T21:04:15.772Z,50.78
2022-12-09T21:06:44.216Z,49.33
2022-12-09T21:09:15.034Z,53.08
2022-12-09T21:11:42.137Z,46.88
2022-12-09T21:14:12.042Z,55.35
2022-12-09T21:16:42.870Z,53.90
2022-12-09T21:19:13.572Z,53.42
2022-12-09T21:21:45.293Z,56.40
2022-12-09T21:24:14.146Z,49.28
2022-12-09T21:26:42.317Z,54.60
2022-12-09T21:29:11.441Z,55.67
2022-12-09T21:31:41.070Z,59.22
2022-12-09T21:34:10.332Z,57.97
2022-12-09T21:36:39.863Z,62.40
2022-12-09T21:39:07.924Z,55.70
2022-12-09T21:41:37.712Z,55.78
2022-12-09T21:44:06.296Z,61.97
2022-12-09T21:46:36.730Z,68.53
2022-12-09T21:49:06.731Z,49.42
2022-12-09T21:51:35.098Z,47.72
2022-12-09T21:54:02.508Z,50.60
2022-12-09T21:56:32.913Z,49.28
2022-12-09T21:59:00.971Z,45.55
2022-12-09T22:01:31.545Z,49.97
2022-12-09T22:04:01.636Z,45.83
2022-12-09T22:06:29.403Z,49.05
2022-12-09T22:09:01.617Z,49.80
2022-12-09T22:11:31.710Z,48.35
2022-12-09T22:14:00.714Z,47.08
2022-12-09T22:16:31.456Z,48.92
2022-12-09T22:18:59.968Z,50.60
2022-12-09T22:21:29.817Z,49.30
2022-12-09T22:24:03.084Z,52.38
2022-12-09T22:26:31.188Z,55.92
2022-12-09T22:29:03.834Z,52.75
2022-12-09T22:31:37.540Z,48.13
2022-12-09T22:34:15.762Z,50.22
2022-12-09T22:36:43.547Z,44.83
2022-12-09T22:39:18.084Z,49.33
2022-12-09T22:41:46.158Z,48.72
2022-12-09T22:44:15.797Z,51.42
2022-12-09T22:46:43.826Z,58.10
2022-12-09T22:49:13.601Z,46.65
2022-12-09T22:51:41.540Z,46.75
2022-12-09T22:54:10.170Z,52.63
2022-12-09T22:56:39.003Z,46.03
2022-12-09T22:59:06.358Z,50.80
2022-12-09T23:01:36.646Z,48.47
2022-12-09T23:04:05.761Z,52.63
2022-12-09T23:06:35.812Z,52.03
2022-12-09T23:09:03.732Z,54.85
2022-12-09T23:11:30.890Z,48.60
2022-12-09T23:13:59.813Z,52.78
2022-12-09T23:16:27.741Z,50.40
2022-12-09T23:18:59.199Z,52.03
2022-12-09T23:21:32.771Z,55.72
2022-12-09T23:24:03.192Z,54.80
2022-12-09T23:26:32.262Z,55.22
2022-12-09T23:29:01.181Z,49.95
2022-12-09T23:31:33.061Z,53.90
2022-12-09T23:34:02.804Z,58.67
2022-12-09T23:36:33.445Z,55.65
2022-12-09T23:39:02.571Z,52.78
2022-12-09T23:41:30.365Z,52.42
2022-12-09T23:43:57.639Z,46.15
2022-12-09T23:46:26.530Z,53.30
2022-12-09T23:48:55.586Z,58.45
2022-12-09T23:51:26.711Z,50.83
2022-12-09T23:53:57.263Z,47.47
2022-12-09T23:56:26.649Z,47.78
2022-12-09T23:58:56.126Z,41.38
